createdAt,value
2019-04-27T00:01:48.373Z,70.38
2019-04-27T00:04:34.889Z,70.42
2019-04-27T00:07:29.331Z,70.50
2019-04-27T00:10:03.478Z,70.59
2019-04-27T00:12:33.124Z,70.44
2019-04-27T00:15:03.310Z,70.72
2019-04-27T00:17:56.912Z,70.70
2019-04-27T00:20:43.419Z,70.63
2019-04-27T00:23:14.951Z,70.81
2019-04-27T00:25:43.911Z,71.07
2019-04-27T00:28:12.959Z,71.17
2019-04-27T00:30:41.455Z,70.94
2019-04-27T00:33:09.925Z,71.14
2019-04-27T00:35:44.887Z,71.14
2019-04-27T00:38:39.756Z,70.92
2019-04-27T00:41:10.810Z,71.02
2019-04-27T00:43:39.291Z,71.20
2019-04-27T00:46:08.036Z,71.15
2019-04-27T00:48:36.492Z,70.96
2019-04-27T00:51:05.150Z,70.86
2019-04-27T00:53:33.645Z,70.81
2019-04-27T00:56:14.923Z,71.12
2019-04-27T00:58:53.538Z,71.15
2019-04-27T01:01:35.112Z,71.31
2019-04-27T01:04:07.623Z,71.32
2019-04-27T01:06:36.127Z,71.19
2019-04-27T01:09:06.022Z,71.32
2019-04-27T01:11:34.814Z,71.11
2019-04-27T01:14:03.873Z,70.87
2019-04-27T01:16:32.427Z,71.01
2019-04-27T01:19:00.914Z,71.44
2019-04-27T01:21:29.726Z,71.79
2019-04-27T01:23:58.874Z,71.81
2019-04-27T01:26:53.982Z,71.83
2019-04-27T01:29:24.514Z,71.69
2019-04-27T01:31:53.043Z,71.56
2019-04-27T01:34:21.582Z,71.58
2019-04-27T01:36:50.302Z,71.54
2019-04-27T01:39:19.224Z,71.60
2019-04-27T01:41:49.101Z,71.64
2019-04-27T01:44:19.282Z,71.59
2019-04-27T01:46:48.704Z,71.66
2019-04-27T01:49:17.216Z,71.71
2019-04-27T01:51:45.694Z,71.68
2019-04-27T01:54:16.288Z,71.71
2019-04-27T01:56:44.761Z,71.86
2019-04-27T01:59:13.249Z,71.86
2019-04-27T02:02:19.428Z,71.89
2019-04-27T02:05:10.076Z,71.87
2019-04-27T02:07:39.628Z,71.87
2019-04-27T02:10:09.005Z,71.94
2019-04-27T02:12:39.646Z,71.84
2019-04-27T02:15:08.810Z,71.80
2019-04-27T02:17:38.668Z,71.81
2019-04-27T02:20:09.619Z,72.00
2019-04-27T02:22:38.453Z,72.16
2019-04-27T02:25:08.938Z,72.03
2019-04-27T02:27:39.524Z,71.80
2019-04-27T02:30:20.916Z,71.70
2019-04-27T02:33:12.284Z,71.75
2019-04-27T02:35:39.118Z,71.97
2019-04-27T02:38:09.963Z,71.95
2019-04-27T02:40:51.412Z,72.09
2019-04-27T02:43:22.245Z,72.24
2019-04-27T02:45:50.761Z,72.11
2019-04-27T02:48:20.057Z,72.12
2019-04-27T02:50:50.372Z,72.27
2019-04-27T02:53:20.503Z,72.28
2019-04-27T02:55:49.928Z,72.56
2019-04-27T02:58:21.526Z,72.58
2019-04-27T03:00:50.185Z,72.59
2019-04-27T03:03:20.374Z,72.55
2019-04-27T03:05:50.341Z,72.44
2019-04-27T03:08:19.990Z,72.46
2019-04-27T03:10:50.335Z,72.41
2019-04-27T03:13:34.955Z,72.46
2019-04-27T03:16:16.435Z,72.62
2019-04-27T03:19:14.988Z,72.70
2019-04-27T03:21:53.350Z,72.60
2019-04-27T03:24:24.857Z,72.63
2019-04-27T03:26:56.591Z,72.58
2019-04-27T03:29:25.059Z,72.48
2019-04-27T03:31:54.471Z,72.76
2019-04-27T03:34:23.235Z,72.74
2019-04-27T03:36:51.842Z,72.55
2019-04-27T03:39:20.575Z,72.61
2019-04-27T03:41:50.202Z,72.81
2019-04-27T03:44:19.874Z,72.81
2019-04-27T03:46:49.650Z,73.00
2019-04-27T03:49:31.001Z,72.95
2019-04-27T03:51:54.942Z,72.93
2019-04-27T03:54:42.430Z,72.95
2019-04-27T03:57:19.776Z,72.90
2019-04-27T04:00:04.836Z,72.98
2019-04-27T04:02:33.580Z,72.92
2019-04-27T04:05:02.048Z,72.88
2019-04-27T04:07:30.525Z,73.08
2019-04-27T04:10:00.237Z,73.07
2019-04-27T04:12:40.027Z,72.97
2019-04-27T04:15:10.656Z,72.91
2019-04-27T04:17:40.229Z,72.96
2019-04-27T04:20:10.214Z,73.00
2019-04-27T04:22:40.395Z,73.10
2019-04-27T04:25:10.815Z,73.14
2019-04-27T04:27:40.075Z,73.21
2019-04-27T04:30:12.207Z,73.26
2019-04-27T04:32:39.883Z,73.13
2019-04-27T04:35:22.023Z,73.12
2019-04-27T04:37:52.786Z,73.08
2019-04-27T04:40:24.389Z,73.08
2019-04-27T04:43:00.282Z,73.04
2019-04-27T04:45:41.249Z,73.00
2019-04-27T04:48:12.848Z,73.01
2019-04-27T04:50:41.318Z,72.92
2019-04-27T04:53:12.158Z,72.74
2019-04-27T04:55:40.419Z,72.75
2019-04-27T04:58:09.426Z,72.75
2019-04-27T05:00:40.109Z,72.69
2019-04-27T05:03:09.421Z,72.83
2019-04-27T05:05:39.453Z,72.72
2019-04-27T05:08:09.052Z,72.81
2019-04-27T05:10:39.519Z,72.83
2019-04-27T05:13:09.361Z,73.02
2019-04-27T05:15:39.441Z,73.03
2019-04-27T05:18:09.126Z,72.98
2019-04-27T05:20:46.564Z,73.12
2019-04-27T05:23:15.023Z,73.23
2019-04-27T05:25:43.506Z,73.06
2019-04-27T05:28:11.987Z,73.11
2019-04-27T05:30:40.490Z,73.25
2019-04-27T05:33:09.177Z,73.37
2019-04-27T05:35:38.765Z,73.54
2019-04-27T05:38:12.850Z,73.58
2019-04-27T05:40:39.897Z,73.47
2019-04-27T05:43:09.183Z,73.44
2019-04-27T05:46:12.316Z,73.43
2019-04-27T05:48:39.809Z,73.22
2019-04-27T05:51:09.181Z,73.19
2019-04-27T05:53:39.446Z,73.14
2019-04-27T05:56:09.420Z,73.13
2019-04-27T05:58:39.221Z,73.06
2019-04-27T06:01:09.615Z,73.08
2019-04-27T06:03:39.662Z,73.14
2019-04-27T06:06:09.663Z,72.92
2019-04-27T06:08:39.293Z,72.75
2019-04-27T06:11:09.386Z,72.76
2019-04-27T06:13:39.243Z,72.70
2019-04-27T06:16:09.406Z,72.53
2019-04-27T06:18:39.237Z,72.35
2019-04-27T06:21:09.573Z,72.23
2019-04-27T06:23:39.070Z,72.38
2019-04-27T06:26:11.339Z,72.38
2019-04-27T06:28:39.752Z,72.36
2019-04-27T06:31:08.837Z,72.13
2019-04-27T06:33:38.991Z,72.02
2019-04-27T06:36:09.865Z,72.12
2019-04-27T06:38:39.400Z,72.02
2019-04-27T06:41:09.771Z,71.73
2019-04-27T06:43:38.148Z,71.76
2019-04-27T06:46:06.688Z,71.80
2019-04-27T06:48:35.216Z,71.49
2019-04-27T06:51:05.715Z,71.19
2019-04-27T06:53:34.138Z,71.26
2019-04-27T06:56:02.591Z,71.10
2019-04-27T06:58:31.151Z,71.13
2019-04-27T07:00:59.851Z,71.13
2019-04-27T07:03:29.063Z,70.91
2019-04-27T07:05:58.820Z,70.87
2019-04-27T07:08:28.716Z,70.86
2019-04-27T07:10:58.813Z,70.52
2019-04-27T07:13:29.023Z,70.51
2019-04-27T07:15:59.581Z,70.26
2019-04-27T07:18:28.617Z,70.26
2019-04-27T07:20:58.690Z,70.20
2019-04-27T07:23:29.121Z,69.91
2019-04-27T07:25:57.427Z,69.99
2019-04-27T07:28:26.048Z,69.89
2019-04-27T07:30:54.532Z,69.79
2019-04-27T07:33:23.006Z,69.47
2019-04-27T07:35:51.767Z,69.38
2019-04-27T07:38:20.229Z,69.40
2019-04-27T07:40:48.936Z,69.10
2019-04-27T07:43:32.487Z,68.73
2019-04-27T07:46:00.983Z,68.20
2019-04-27T07:48:29.724Z,67.95
2019-04-27T07:50:59.059Z,67.86
2019-04-27T07:53:29.157Z,67.56
2019-04-27T07:55:59.300Z,67.59
2019-04-27T07:58:29.495Z,67.55
2019-04-27T08:00:59.436Z,67.44
2019-04-27T08:03:29.116Z,67.52
2019-04-27T08:05:58.852Z,67.14
2019-04-27T08:08:28.622Z,66.74
2019-04-27T08:10:57.053Z,66.77
2019-04-27T08:13:25.553Z,66.77
2019-04-27T08:15:54.006Z,66.33
2019-04-27T08:18:22.464Z,66.49
2019-04-27T08:20:51.192Z,66.06
2019-04-27T08:23:19.732Z,66.11
2019-04-27T08:25:48.954Z,66.03
2019-04-27T08:28:31.564Z,66.14
2019-04-27T08:31:16.531Z,65.34
2019-04-27T08:33:44.972Z,65.42
2019-04-27T08:36:13.429Z,65.34
2019-04-27T08:38:42.045Z,64.93
2019-04-27T08:41:10.512Z,64.75
2019-04-27T08:43:39.185Z,64.39
2019-04-27T08:46:08.763Z,64.49
2019-04-27T08:48:39.297Z,64.15
2019-04-27T08:51:09.425Z,63.96
2019-04-27T08:53:39.624Z,63.58
2019-04-27T08:56:09.374Z,63.59
2019-04-27T08:58:38.594Z,63.80
2019-04-27T09:01:09.987Z,63.51
2019-04-27T09:03:39.368Z,63.39
2019-04-27T09:06:09.615Z,63.41
2019-04-27T09:08:46.655Z,63.19
2019-04-27T09:11:29.803Z,62.49
2019-04-27T09:14:14.483Z,63.01
2019-04-27T09:16:59.640Z,62.93
2019-04-27T09:19:40.558Z,62.47
2019-04-27T09:22:16.021Z,61.87
2019-04-27T09:24:39.735Z,61.66
2019-04-27T09:27:09.632Z,61.33
2019-04-27T09:29:39.484Z,61.10
2019-04-27T09:32:08.897Z,61.05
2019-04-27T09:34:37.442Z,60.23
2019-04-27T09:37:06.145Z,60.29
2019-04-27T09:39:35.881Z,60.09
2019-04-27T09:42:06.417Z,60.25
2019-04-27T09:44:36.907Z,59.59
2019-04-27T09:47:06.133Z,59.58
2019-04-27T09:49:36.631Z,59.38
2019-04-27T09:52:06.320Z,58.49
2019-04-27T09:54:36.530Z,57.90
2019-04-27T09:57:06.960Z,57.65
2019-04-27T09:59:35.332Z,57.53
2019-04-27T10:02:03.931Z,57.88
2019-04-27T10:04:32.388Z,58.23
2019-04-27T10:07:01.391Z,58.44
2019-04-27T10:09:30.023Z,58.48
2019-04-27T10:11:58.516Z,57.28
2019-04-27T10:14:26.968Z,57.06
2019-04-27T10:16:55.838Z,56.52
2019-04-27T10:19:31.144Z,56.16
2019-04-27T10:21:54.638Z,55.70
2019-04-27T10:24:23.111Z,56.38
2019-04-27T10:26:51.686Z,56.66
2019-04-27T10:29:20.161Z,55.74
2019-04-27T10:31:48.616Z,55.76
2019-04-27T10:34:17.097Z,54.95
2019-04-27T10:36:46.146Z,55.17
2019-04-27T10:39:14.662Z,55.46
2019-04-27T10:41:43.364Z,53.90
2019-04-27T10:44:12.065Z,54.56
2019-04-27T10:46:40.761Z,53.90
2019-04-27T10:49:09.233Z,53.90
2019-04-27T10:51:37.711Z,54.11
2019-04-27T10:54:06.346Z,52.57
2019-04-27T10:56:36.177Z,53.50
2019-04-27T10:59:06.546Z,52.67
2019-04-27T11:01:36.069Z,51.85
2019-04-27T11:04:17.827Z,51.91
2019-04-27T11:06:50.050Z,50.51
2019-04-27T11:09:18.804Z,51.12
2019-04-27T11:11:47.451Z,51.31
2019-04-27T11:14:16.090Z,50.61
2019-04-27T11:16:45.942Z,51.42
2019-04-27T11:19:16.723Z,51.15
2019-04-27T11:21:44.730Z,51.08
2019-04-27T11:24:13.370Z,50.83
2019-04-27T11:26:41.809Z,50.16
2019-04-27T11:29:10.387Z,49.94
2019-04-27T11:31:38.852Z,50.21
2019-04-27T11:34:07.506Z,50.01
2019-04-27T11:36:48.422Z,50.19
2019-04-27T11:39:19.627Z,49.89
2019-04-27T11:41:47.478Z,49.19
2019-04-27T11:44:17.090Z,49.26
2019-04-27T11:46:47.506Z,48.59
2019-04-27T11:49:16.128Z,48.39
2019-04-27T11:51:44.579Z,46.44
2019-04-27T11:54:13.356Z,47.99
2019-04-27T11:56:42.171Z,47.50
2019-04-27T11:59:10.610Z,47.84
2019-04-27T12:01:39.484Z,47.66
2019-04-27T12:04:08.041Z,47.40
2019-04-27T12:06:36.508Z,47.77
2019-04-27T12:09:06.135Z,47.75
2019-04-27T12:11:36.228Z,47.44
2019-04-27T12:14:06.204Z,47.16
2019-04-27T12:16:36.053Z,46.88
2019-04-27T12:19:06.331Z,46.45
2019-04-27T12:21:36.175Z,45.84
2019-04-27T12:24:04.823Z,46.12
2019-04-27T12:26:39.363Z,43.77
2019-04-27T12:29:09.365Z,43.42
2019-04-27T12:31:42.921Z,44.04
2019-04-27T12:34:10.456Z,44.52
2019-04-27T12:36:38.937Z,44.03
2019-04-27T12:39:11.675Z,43.81
2019-04-27T12:41:40.360Z,44.13
2019-04-27T12:44:09.415Z,44.29
2019-04-27T12:46:38.084Z,43.88
2019-04-27T12:49:06.784Z,43.21
2019-04-27T12:51:35.829Z,43.08
2019-04-27T12:54:10.732Z,42.24
2019-04-27T12:57:01.882Z,42.60
2019-04-27T12:59:48.135Z,42.52
2019-04-27T13:02:17.072Z,42.90
2019-04-27T13:04:46.664Z,42.42
2019-04-27T13:07:16.033Z,41.71
2019-04-27T13:09:46.133Z,42.42
2019-04-27T13:12:14.939Z,41.75
2019-04-27T13:14:43.384Z,40.71
2019-04-27T13:17:11.864Z,41.50
2019-04-27T13:19:40.321Z,41.57
2019-04-27T13:22:08.910Z,41.35
2019-04-27T13:24:37.379Z,41.14
2019-04-27T13:27:06.425Z,41.50
2019-04-27T13:29:35.701Z,40.84
2019-04-27T13:32:06.007Z,41.21
2019-04-27T13:34:36.332Z,41.49
2019-04-27T13:37:26.258Z,41.92
2019-04-27T13:40:06.362Z,43.04
2019-04-27T13:42:26.617Z,44.71
2019-04-27T13:44:55.783Z,45.92
2019-04-27T13:47:36.753Z,47.96
2019-04-27T13:50:19.252Z,48.29
2019-04-27T13:52:47.696Z,48.52
2019-04-27T13:55:16.415Z,49.17
2019-04-27T13:57:50.491Z,49.49
2019-04-27T14:00:15.424Z,49.80
2019-04-27T14:02:44.200Z,50.11
2019-04-27T14:05:12.844Z,50.67
2019-04-27T14:07:41.304Z,50.87
2019-04-27T14:10:09.752Z,51.36
2019-04-27T14:12:38.647Z,51.46
2019-04-27T14:15:08.668Z,50.78
2019-04-27T14:17:39.058Z,50.94
2019-04-27T14:20:07.901Z,50.75
2019-04-27T14:22:37.638Z,50.90
2019-04-27T14:25:06.387Z,51.04
2019-04-27T14:27:40.986Z,50.45
2019-04-27T14:30:09.973Z,50.57
2019-04-27T14:32:38.817Z,50.71
2019-04-27T14:35:08.426Z,50.45
2019-04-27T14:37:38.813Z,50.41
2019-04-27T14:40:08.438Z,50.69
2019-04-27T14:42:36.941Z,51.02
2019-04-27T14:45:05.729Z,51.33
2019-04-27T14:47:34.201Z,51.65
2019-04-27T14:50:02.897Z,51.57
2019-04-27T14:52:31.541Z,51.72
2019-04-27T14:55:00.014Z,51.79
2019-04-27T14:57:29.179Z,51.97
2019-04-27T14:59:58.377Z,51.90
2019-04-27T15:02:27.933Z,52.28
2019-04-27T15:04:56.434Z,52.39
2019-04-27T15:07:25.139Z,52.32
2019-04-27T15:09:57.318Z,52.22
2019-04-27T15:12:30.406Z,52.48
2019-04-27T15:14:57.211Z,52.55
2019-04-27T15:17:26.653Z,52.63
2019-04-27T15:20:00.332Z,52.39
2019-04-27T15:22:30.817Z,52.34
2019-04-27T15:25:09.045Z,52.57
2019-04-27T15:27:37.527Z,53.25
2019-04-27T15:30:11.127Z,52.85
2019-04-27T15:33:05.300Z,53.08
2019-04-27T15:35:43.761Z,53.20
2019-04-27T15:38:14.669Z,53.17
2019-04-27T15:41:08.844Z,53.40
2019-04-27T15:43:38.777Z,53.38
2019-04-27T15:46:08.268Z,53.45
2019-04-27T15:48:38.433Z,53.76
2019-04-27T15:51:16.443Z,53.99
2019-04-27T15:53:41.133Z,54.17
2019-04-27T15:56:08.883Z,54.29
2019-04-27T15:58:38.303Z,54.41
2019-04-27T16:01:09.946Z,54.31
2019-04-27T16:03:38.954Z,54.87
2019-04-27T16:06:11.717Z,54.53
2019-04-27T16:08:45.228Z,54.32
2019-04-27T16:11:09.971Z,54.22
2019-04-27T16:13:38.774Z,54.82
2019-04-27T16:16:08.437Z,54.87
2019-04-27T16:18:38.823Z,54.61
2019-04-27T16:21:10.630Z,54.63
2019-04-27T16:23:42.840Z,54.70
2019-04-27T16:26:11.284Z,54.65
2019-04-27T16:28:38.483Z,54.44
2019-04-27T16:31:06.953Z,54.65
2019-04-27T16:33:35.406Z,54.74
2019-04-27T16:36:06.993Z,54.60
2019-04-27T16:38:39.028Z,54.85
2019-04-27T16:41:08.249Z,54.90
2019-04-27T16:43:38.441Z,55.27
2019-04-27T16:46:08.783Z,55.18
2019-04-27T16:48:39.019Z,55.45
2019-04-27T16:51:08.745Z,55.59
2019-04-27T16:53:41.028Z,55.79
2019-04-27T16:56:14.278Z,55.87
2019-04-27T16:58:39.425Z,55.84
2019-04-27T17:01:10.723Z,56.74
2019-04-27T17:03:41.232Z,56.36
2019-04-27T17:06:09.462Z,56.76
2019-04-27T17:08:39.361Z,56.44
2019-04-27T17:11:12.945Z,57.36
2019-04-27T17:13:44.110Z,56.92
2019-04-27T17:16:24.607Z,56.57
2019-04-27T17:18:59.630Z,56.98
2019-04-27T17:21:26.408Z,57.34
2019-04-27T17:23:56.942Z,57.80
2019-04-27T17:26:25.346Z,58.15
2019-04-27T17:28:59.834Z,58.37
2019-04-27T17:31:29.991Z,58.48
2019-04-27T17:34:00.775Z,57.94
2019-04-27T17:36:29.346Z,58.78
2019-04-27T17:38:58.411Z,59.43
2019-04-27T17:41:28.299Z,59.70
2019-04-27T17:43:58.946Z,60.00
2019-04-27T17:46:28.174Z,60.69
2019-04-27T17:48:58.590Z,60.51
2019-04-27T17:51:30.513Z,60.75
2019-04-27T17:53:58.664Z,61.39
2019-04-27T17:56:35.361Z,61.42
2019-04-27T17:58:58.620Z,61.71
2019-04-27T18:01:30.167Z,61.73
2019-04-27T18:03:59.961Z,61.97
2019-04-27T18:06:29.430Z,62.41
2019-04-27T18:09:02.079Z,62.03
2019-04-27T18:11:28.850Z,62.67
2019-04-27T18:14:00.402Z,62.83
2019-04-27T18:16:33.795Z,62.73
2019-04-27T18:19:08.002Z,62.26
2019-04-27T18:21:36.246Z,62.08
2019-04-27T18:24:09.886Z,62.31
2019-04-27T18:26:51.651Z,62.63
2019-04-27T18:29:18.483Z,62.99
2019-04-27T18:31:53.361Z,64.86
2019-04-27T18:34:18.942Z,64.20
2019-04-27T18:36:47.553Z,64.54
2019-04-27T18:39:15.993Z,64.65
2019-04-27T18:41:49.725Z,64.93
2019-04-27T18:44:14.758Z,64.47
2019-04-27T18:46:43.232Z,64.86
2019-04-27T18:49:22.603Z,64.63
2019-04-27T18:52:08.995Z,64.90
2019-04-27T18:54:41.985Z,64.73
2019-04-27T18:57:10.680Z,64.81
2019-04-27T18:59:38.232Z,65.37
2019-04-27T19:02:08.439Z,65.58
2019-04-27T19:04:37.030Z,65.60
2019-04-27T19:07:05.765Z,66.09
2019-04-27T19:09:34.221Z,66.13
2019-04-27T19:12:02.961Z,66.34
2019-04-27T19:14:31.418Z,66.02
2019-04-27T19:17:00.162Z,65.74
2019-04-27T19:19:28.714Z,65.75
2019-04-27T19:21:58.891Z,65.70
2019-04-27T19:24:28.249Z,65.82
2019-04-27T19:27:15.067Z,66.50
2019-04-27T19:29:39.972Z,66.62
2019-04-27T19:32:08.442Z,66.61
2019-04-27T19:34:38.756Z,66.67
2019-04-27T19:37:08.120Z,66.80
2019-04-27T19:39:36.804Z,66.59
2019-04-27T19:42:05.345Z,66.12
2019-04-27T19:44:33.823Z,65.93
2019-04-27T19:47:02.365Z,66.23
2019-04-27T19:49:31.645Z,66.75
2019-04-27T19:52:00.474Z,66.78
2019-04-27T19:54:30.282Z,67.13
2019-04-27T19:56:59.495Z,67.22
2019-04-27T19:59:38.081Z,67.31
2019-04-27T20:02:11.058Z,67.15
2019-04-27T20:04:41.213Z,66.90
2019-04-27T20:07:10.613Z,67.44
2019-04-27T20:09:49.929Z,67.00
2019-04-27T20:12:18.548Z,67.10
2019-04-27T20:14:56.293Z,66.64
2019-04-27T20:17:30.890Z,66.72
2019-04-27T20:19:59.149Z,67.08
2019-04-27T20:22:27.592Z,67.25
2019-04-27T20:24:56.064Z,67.09
2019-04-27T20:27:24.520Z,67.45
2019-04-27T20:29:52.997Z,67.60
2019-04-27T20:32:21.641Z,67.54
2019-04-27T20:34:51.289Z,67.34
2019-04-27T20:37:21.051Z,66.97
2019-04-27T20:39:51.359Z,67.09
2019-04-27T20:42:21.127Z,66.95
2019-04-27T20:44:51.568Z,67.33
2019-04-27T20:47:20.268Z,67.33
2019-04-27T20:49:48.720Z,67.29
2019-04-27T20:52:35.000Z,67.59
2019-04-27T20:55:03.562Z,67.57
2019-04-27T20:57:32.298Z,67.45
2019-04-27T21:00:01.919Z,67.24
2019-04-27T21:02:55.675Z,67.69
2019-04-27T21:05:41.088Z,67.33
2019-04-27T21:08:11.753Z,66.87
2019-04-27T21:10:41.292Z,66.79
2019-04-27T21:13:11.193Z,66.74
2019-04-27T21:15:41.733Z,66.76
2019-04-27T21:18:11.506Z,66.93
2019-04-27T21:20:41.172Z,66.78
2019-04-27T21:23:11.883Z,66.83
2019-04-27T21:25:41.832Z,66.93
2019-04-27T21:28:17.860Z,66.92
2019-04-27T21:30:40.665Z,67.30
2019-04-27T21:33:09.111Z,67.76
2019-04-27T21:35:37.812Z,67.78
2019-04-27T21:38:06.280Z,67.40
2019-04-27T21:40:34.736Z,67.14
2019-04-27T21:43:03.218Z,66.99
2019-04-27T21:45:31.920Z,67.10
2019-04-27T21:48:00.842Z,67.06
2019-04-27T21:50:31.322Z,67.23
2019-04-27T21:53:08.243Z,67.21
2019-04-27T21:55:36.858Z,67.19
2019-04-27T21:58:05.345Z,67.00
2019-04-27T22:00:58.484Z,67.21
2019-04-27T22:03:29.330Z,67.22
2019-04-27T22:05:57.796Z,67.31
2019-04-27T22:08:26.266Z,66.91
2019-04-27T22:10:54.739Z,66.79
2019-04-27T22:13:23.455Z,66.90
2019-04-27T22:15:51.925Z,66.92
2019-04-27T22:18:21.214Z,66.96
2019-04-27T22:20:51.097Z,66.92
2019-04-27T22:23:31.945Z,67.04
2019-04-27T22:26:01.279Z,67.26
2019-04-27T22:28:45.881Z,67.43
2019-04-27T22:31:00.130Z,67.48
2019-04-27T22:33:28.591Z,67.69
2019-04-27T22:35:57.066Z,67.63
2019-04-27T22:38:25.605Z,67.55
2019-04-27T22:41:17.989Z,67.60
2019-04-27T22:44:04.674Z,67.65
2019-04-27T22:46:33.438Z,67.57
2019-04-27T22:49:01.953Z,67.45
2019-04-27T22:51:30.371Z,67.67
2019-04-27T22:53:58.845Z,67.81
2019-04-27T22:56:27.354Z,67.73
2019-04-27T22:59:14.850Z,67.77
2019-04-27T23:02:01.587Z,67.78
2019-04-27T23:04:36.904Z,67.85
2019-04-27T23:07:05.360Z,67.59
2019-04-27T23:09:33.825Z,67.46
2019-04-27T23:12:02.306Z,67.61
2019-04-27T23:14:31.288Z,67.50
2019-04-27T23:17:06.924Z,67.36
2019-04-27T23:19:35.386Z,67.04
2019-04-27T23:22:05.994Z,67.26
2019-04-27T23:24:34.237Z,67.44
2019-04-27T23:27:03.664Z,67.39
2019-04-27T23:29:33.270Z,67.54
2019-04-27T23:32:07.415Z,67.31
2019-04-27T23:34:35.885Z,67.50
2019-04-27T23:37:04.675Z,67.94
2019-04-27T23:39:33.109Z,67.79
2019-04-27T23:42:06.390Z,67.62
2019-04-27T23:44:31.768Z,67.80
2019-04-27T23:47:00.246Z,68.05
2019-04-27T23:49:28.710Z,68.00
2019-04-27T23:52:16.849Z,68.07
2019-04-27T23:54:45.550Z,68.20
2019-04-27T23:57:14.033Z,68.23
2019-04-27T23:59:42.498Z,68.00
